sensor_id;sensor_type;location;lat;lon;timestamp;pressure;altitude;pressure_sealevel;temperature
68588;BMP180;55560;52.174;20.996;2022-07-29T00:01:40;101075.40;;;17.70
68588;BMP180;55560;52.174;20.996;2022-07-29T00:04:09;101072.60;;;17.70
68588;BMP180;55560;52.174;20.996;2022-07-29T00:06:37;101080.40;;;17.60
68588;BMP180;55560;52.174;20.996;2022-07-29T00:09:08;101079.20;;;17.60
68588;BMP180;55560;52.174;20.996;2022-07-29T00:11:36;101081.40;;;17.60
68588;BMP180;55560;52.174;20.996;2022-07-29T00:14:03;101085.00;;;17.52
68588;BMP180;55560;52.174;20.996;2022-07-29T00:16:30;101084.80;;;17.50
68588;BMP180;55560;52.174;20.996;2022-07-29T00:18:59;101085.20;;;17.50
68588;BMP180;55560;52.174;20.996;2022-07-29T00:21:29;101079.80;;;17.50
68588;BMP180;55560;52.174;20.996;2022-07-29T00:23:57;101084.20;;;17.50
68588;BMP180;55560;52.174;20.996;2022-07-29T00:26:25;101085.60;;;17.50
68588;BMP180;55560;52.174;20.996;2022-07-29T00:29:00;101085.80;;;17.50
68588;BMP180;55560;52.174;20.996;2022-07-29T00:31:49;101088.60;;;17.50
68588;BMP180;55560;52.174;20.996;2022-07-29T00:34:20;101089.00;;;17.50
68588;BMP180;55560;52.174;20.996;2022-07-29T00:37:09;101091.40;;;17.50
68588;BMP180;55560;52.174;20.996;2022-07-29T00:39:37;101090.80;;;17.48
68588;BMP180;55560;52.174;20.996;2022-07-29T00:42:04;101086.80;;;17.42
68588;BMP180;55560;52.174;20.996;2022-07-29T00:44:40;101078.00;;;17.40
68588;BMP180;55560;52.174;20.996;2022-07-29T00:47:10;101072.00;;;17.40
68588;BMP180;55560;52.174;20.996;2022-07-29T00:49:40;101069.00;;;17.40
68588;BMP180;55560;52.174;20.996;2022-07-29T00:52:09;101067.40;;;17.40
68588;BMP180;55560;52.174;20.996;2022-07-29T00:54:39;101069.80;;;17.40
68588;BMP180;55560;52.174;20.996;2022-07-29T00:57:12;101071.80;;;17.40
68588;BMP180;55560;52.174;20.996;2022-07-29T00:59:44;101070.60;;;17.40
68588;BMP180;55560;52.174;20.996;2022-07-29T01:02:12;101070.40;;;17.40
68588;BMP180;55560;52.174;20.996;2022-07-29T01:04:39;101075.80;;;17.40
68588;BMP180;55560;52.174;20.996;2022-07-29T01:07:06;101077.40;;;17.48
68588;BMP180;55560;52.174;20.996;2022-07-29T01:09:35;101073.20;;;17.50
68588;BMP180;55560;52.174;20.996;2022-07-29T01:12:21;101077.00;;;17.42
68588;BMP180;55560;52.174;20.996;2022-07-29T01:14:49;101076.60;;;17.40
68588;BMP180;55560;52.174;20.996;2022-07-29T01:18:01;101069.00;;;17.40
68588;BMP180;55560;52.174;20.996;2022-07-29T01:30:02;101069.20;;;17.20
68588;BMP180;55560;52.174;20.996;2022-07-29T01:32:36;101069.00;;;17.18
68588;BMP180;55560;52.174;20.996;2022-07-29T01:35:22;101072.00;;;17.10
68588;BMP180;55560;52.174;20.996;2022-07-29T01:38:17;101069.40;;;17.10
68588;BMP180;55560;52.174;20.996;2022-07-29T01:40:53;101073.20;;;17.00
68588;BMP180;55560;52.174;20.996;2022-07-29T01:43:27;101077.20;;;17.00
68588;BMP180;55560;52.174;20.996;2022-07-29T01:46:04;101079.40;;;17.00
68588;BMP180;55560;52.174;20.996;2022-07-29T01:48:44;101079.80;;;17.00
68588;BMP180;55560;52.174;20.996;2022-07-29T01:51:27;101076.60;;;16.90
68588;BMP180;55560;52.174;20.996;2022-07-29T01:56:51;101074.00;;;16.80
68588;BMP180;55560;52.174;20.996;2022-07-29T01:59:20;101074.80;;;16.80
68588;BMP180;55560;52.174;20.996;2022-07-29T02:01:54;101077.40;;;16.70
68588;BMP180;55560;52.174;20.996;2022-07-29T02:04:25;101080.40;;;16.70
68588;BMP180;55560;52.174;20.996;2022-07-29T02:07:03;101072.40;;;16.70
68588;BMP180;55560;52.174;20.996;2022-07-29T02:09:36;101076.80;;;16.70
68588;BMP180;55560;52.174;20.996;2022-07-29T02:12:05;101078.00;;;16.70
68588;BMP180;55560;52.174;20.996;2022-07-29T02:14:40;101076.20;;;16.62
68588;BMP180;55560;52.174;20.996;2022-07-29T02:17:19;101080.80;;;16.62
68588;BMP180;55560;52.174;20.996;2022-07-29T02:19:57;101081.40;;;16.60
68588;BMP180;55560;52.174;20.996;2022-07-29T02:22:30;101078.60;;;16.60
68588;BMP180;55560;52.174;20.996;2022-07-29T02:25:01;101078.80;;;16.60
68588;BMP180;55560;52.174;20.996;2022-07-29T02:27:33;101076.40;;;16.60
68588;BMP180;55560;52.174;20.996;2022-07-29T02:30:07;101078.40;;;16.54
68588;BMP180;55560;52.174;20.996;2022-07-29T02:32:45;101082.80;;;16.50
68588;BMP180;55560;52.174;20.996;2022-07-29T02:35:16;101084.80;;;16.50
68588;BMP180;55560;52.174;20.996;2022-07-29T02:37:45;101082.40;;;16.50
68588;BMP180;55560;52.174;20.996;2022-07-29T02:40:37;101080.00;;;16.40
68588;BMP180;55560;52.174;20.996;2022-07-29T02:43:07;101077.60;;;16.40
68588;BMP180;55560;52.174;20.996;2022-07-29T02:45:34;101076.20;;;16.40
68588;BMP180;55560;52.174;20.996;2022-07-29T02:48:07;101079.20;;;16.40
68588;BMP180;55560;52.174;20.996;2022-07-29T02:50:44;101086.20;;;16.40
68588;BMP180;55560;52.174;20.996;2022-07-29T02:53:20;101086.20;;;16.40
68588;BMP180;55560;52.174;20.996;2022-07-29T02:56:04;101090.00;;;16.40
68588;BMP180;55560;52.174;20.996;2022-07-29T02:58:42;101090.80;;;16.40
68588;BMP180;55560;52.174;20.996;2022-07-29T03:01:20;101088.40;;;16.30
68588;BMP180;55560;52.174;20.996;2022-07-29T03:03:52;101081.20;;;16.30
68588;BMP180;55560;52.174;20.996;2022-07-29T03:06:22;101078.80;;;16.30
68588;BMP180;55560;52.174;20.996;2022-07-29T03:09:10;101073.60;;;16.22
68588;BMP180;55560;52.174;20.996;2022-07-29T03:11:47;101068.80;;;16.20
68588;BMP180;55560;52.174;20.996;2022-07-29T03:14:22;101075.60;;;16.30
68588;BMP180;55560;52.174;20.996;2022-07-29T03:16:55;101075.40;;;16.20
68588;BMP180;55560;52.174;20.996;2022-07-29T03:19:22;101077.20;;;16.20
68588;BMP180;55560;52.174;20.996;2022-07-29T03:21:51;101080.20;;;16.20
68588;BMP180;55560;52.174;20.996;2022-07-29T03:24:35;101086.40;;;16.20
68588;BMP180;55560;52.174;20.996;2022-07-29T03:27:08;101085.00;;;16.20
68588;BMP180;55560;52.174;20.996;2022-07-29T03:29:35;101085.00;;;16.20
68588;BMP180;55560;52.174;20.996;2022-07-29T03:32:05;101087.20;;;16.20
68588;BMP180;55560;52.174;20.996;2022-07-29T03:34:37;101087.80;;;16.20
68588;BMP180;55560;52.174;20.996;2022-07-29T03:37:06;101085.00;;;16.20
68588;BMP180;55560;52.174;20.996;2022-07-29T03:39:40;101087.80;;;16.10
68588;BMP180;55560;52.174;20.996;2022-07-29T03:42:11;101080.60;;;16.10
68588;BMP180;55560;52.174;20.996;2022-07-29T03:44:42;101079.60;;;16.10
68588;BMP180;55560;52.174;20.996;2022-07-29T03:47:13;101078.20;;;16.10
68588;BMP180;55560;52.174;20.996;2022-07-29T03:49:42;101084.00;;;16.10
68588;BMP180;55560;52.174;20.996;2022-07-29T03:52:10;101084.60;;;16.10
68588;BMP180;55560;52.174;20.996;2022-07-29T03:54:38;101084.00;;;16.10
68588;BMP180;55560;52.174;20.996;2022-07-29T03:57:07;101084.20;;;16.18
68588;BMP180;55560;52.174;20.996;2022-07-29T03:59:34;101084.80;;;16.20
68588;BMP180;55560;52.174;20.996;2022-07-29T04:02:04;101083.60;;;16.20
68588;BMP180;55560;52.174;20.996;2022-07-29T04:04:35;101086.00;;;16.20
68588;BMP180;55560;52.174;20.996;2022-07-29T04:07:04;101088.20;;;16.20
68588;BMP180;55560;52.174;20.996;2022-07-29T04:09:32;101088.00;;;16.20
68588;BMP180;55560;52.174;20.996;2022-07-29T04:12:00;101088.00;;;16.20
68588;BMP180;55560;52.174;20.996;2022-07-29T04:14:34;101087.80;;;16.20
68588;BMP180;55560;52.174;20.996;2022-07-29T04:17:01;101083.40;;;16.26
68588;BMP180;55560;52.174;20.996;2022-07-29T04:19:31;101088.00;;;16.30
68588;BMP180;55560;52.174;20.996;2022-07-29T04:22:00;101091.60;;;16.30
68588;BMP180;55560;52.174;20.996;2022-07-29T04:24:27;101089.40;;;16.38
68588;BMP180;55560;52.174;20.996;2022-07-29T04:26:54;101089.20;;;16.40
68588;BMP180;55560;52.174;20.996;2022-07-29T04:29:21;101090.80;;;16.40
68588;BMP180;55560;52.174;20.996;2022-07-29T04:31:49;101089.40;;;16.40
68588;BMP180;55560;52.174;20.996;2022-07-29T04:34:18;101092.00;;;16.50
68588;BMP180;55560;52.174;20.996;2022-07-29T04:36:46;101094.20;;;16.50
68588;BMP180;55560;52.174;20.996;2022-07-29T04:39:13;101087.40;;;16.60
68588;BMP180;55560;52.174;20.996;2022-07-29T04:41:46;101087.20;;;16.60
68588;BMP180;55560;52.174;20.996;2022-07-29T04:44:15;101087.00;;;16.60
68588;BMP180;55560;52.174;20.996;2022-07-29T04:46:44;101087.60;;;16.64
68588;BMP180;55560;52.174;20.996;2022-07-29T04:49:12;101094.80;;;16.70
68588;BMP180;55560;52.174;20.996;2022-07-29T04:51:40;101100.40;;;16.76
68588;BMP180;55560;52.174;20.996;2022-07-29T04:54:07;101101.80;;;16.80
68588;BMP180;55560;52.174;20.996;2022-07-29T04:56:37;101095.60;;;16.88
68588;BMP180;55560;52.174;20.996;2022-07-29T04:59:04;101099.60;;;16.82
68588;BMP180;55560;52.174;20.996;2022-07-29T05:01:32;101106.00;;;16.90
68588;BMP180;55560;52.174;20.996;2022-07-29T05:04:02;101106.60;;;17.02
68588;BMP180;55560;52.174;20.996;2022-07-29T05:06:29;101107.60;;;17.20
68588;BMP180;55560;52.174;20.996;2022-07-29T05:09:01;101104.40;;;17.20
68588;BMP180;55560;52.174;20.996;2022-07-29T05:11:28;101105.00;;;17.30
68588;BMP180;55560;52.174;20.996;2022-07-29T05:13:56;101107.80;;;17.40
68588;BMP180;55560;52.174;20.996;2022-07-29T05:16:24;101115.80;;;17.70
68588;BMP180;55560;52.174;20.996;2022-07-29T05:18:53;101122.20;;;18.22
68588;BMP180;55560;52.174;20.996;2022-07-29T05:21:24;101117.40;;;18.50
68588;BMP180;55560;52.174;20.996;2022-07-29T05:23:51;101121.20;;;18.74
68588;BMP180;55560;52.174;20.996;2022-07-29T05:26:18;101124.40;;;19.20
68588;BMP180;55560;52.174;20.996;2022-07-29T05:28:46;101125.40;;;19.58
68588;BMP180;55560;52.174;20.996;2022-07-29T05:31:16;101131.00;;;20.26
68588;BMP180;55560;52.174;20.996;2022-07-29T05:33:44;101126.80;;;20.60
68588;BMP180;55560;52.174;20.996;2022-07-29T05:36:11;101128.80;;;20.60
68588;BMP180;55560;52.174;20.996;2022-07-29T05:38:39;101126.00;;;20.40
68588;BMP180;55560;52.174;20.996;2022-07-29T05:41:06;101122.80;;;20.30
68588;BMP180;55560;52.174;20.996;2022-07-29T05:43:35;101128.40;;;20.20
68588;BMP180;55560;52.174;20.996;2022-07-29T05:46:03;101126.80;;;20.10
68588;BMP180;55560;52.174;20.996;2022-07-29T05:48:31;101121.40;;;20.20
68588;BMP180;55560;52.174;20.996;2022-07-29T05:51:00;101119.00;;;20.06
68588;BMP180;55560;52.174;20.996;2022-07-29T05:53:28;101110.20;;;20.00
68588;BMP180;55560;52.174;20.996;2022-07-29T05:55:58;101107.60;;;19.90
68588;BMP180;55560;52.174;20.996;2022-07-29T05:58:30;101109.80;;;19.80
68588;BMP180;55560;52.174;20.996;2022-07-29T06:00:57;101106.20;;;19.80
68588;BMP180;55560;52.174;20.996;2022-07-29T06:03:28;101107.20;;;19.80
68588;BMP180;55560;52.174;20.996;2022-07-29T06:05:57;101103.60;;;19.90
68588;BMP180;55560;52.174;20.996;2022-07-29T06:08:24;101095.80;;;20.16
68588;BMP180;55560;52.174;20.996;2022-07-29T06:10:53;101093.60;;;20.70
68588;BMP180;55560;52.174;20.996;2022-07-29T06:13:27;101095.20;;;21.62
68588;BMP180;55560;52.174;20.996;2022-07-29T06:15:55;101103.60;;;22.40
68588;BMP180;55560;52.174;20.996;2022-07-29T06:18:24;101104.00;;;22.62
68588;BMP180;55560;52.174;20.996;2022-07-29T06:20:51;101105.60;;;23.30
68588;BMP180;55560;52.174;20.996;2022-07-29T06:23:22;101105.20;;;23.88
68588;BMP180;55560;52.174;20.996;2022-07-29T06:25:51;101101.40;;;23.44
68588;BMP180;55560;52.174;20.996;2022-07-29T06:28:20;101099.20;;;23.00
68588;BMP180;55560;52.174;20.996;2022-07-29T06:30:49;101102.00;;;23.10
68588;BMP180;55560;52.174;20.996;2022-07-29T06:33:18;101094.80;;;23.52
68588;BMP180;55560;52.174;20.996;2022-07-29T06:35:47;101094.40;;;24.10
68588;BMP180;55560;52.174;20.996;2022-07-29T06:38:22;101103.00;;;25.10
68588;BMP180;55560;52.174;20.996;2022-07-29T06:41:00;101099.20;;;25.52
68588;BMP180;55560;52.174;20.996;2022-07-29T06:43:38;101107.00;;;25.30
68588;BMP180;55560;52.174;20.996;2022-07-29T06:46:21;101106.60;;;24.84
68588;BMP180;55560;52.174;20.996;2022-07-29T06:48:48;101107.20;;;24.56
68588;BMP180;55560;52.174;20.996;2022-07-29T06:51:20;101106.40;;;24.20
68588;BMP180;55560;52.174;20.996;2022-07-29T06:53:51;101105.60;;;23.90
68588;BMP180;55560;52.174;20.996;2022-07-29T06:56:34;101109.60;;;23.60
68588;BMP180;55560;52.174;20.996;2022-07-29T06:59:08;101109.40;;;23.34
68588;BMP180;55560;52.174;20.996;2022-07-29T07:01:43;101108.00;;;23.18
68588;BMP180;55560;52.174;20.996;2022-07-29T07:04:11;101108.80;;;23.00
68588;BMP180;55560;52.174;20.996;2022-07-29T07:06:38;101107.40;;;22.90
68588;BMP180;55560;52.174;20.996;2022-07-29T07:09:06;101107.00;;;22.70
68588;BMP180;55560;52.174;20.996;2022-07-29T07:11:40;101105.00;;;22.60
68588;BMP180;55560;52.174;20.996;2022-07-29T07:14:07;101098.60;;;22.50
68588;BMP180;55560;52.174;20.996;2022-07-29T07:16:34;101093.80;;;22.30
68588;BMP180;55560;52.174;20.996;2022-07-29T07:19:04;101097.80;;;22.30
68588;BMP180;55560;52.174;20.996;2022-07-29T07:21:36;101102.60;;;22.30
68588;BMP180;55560;52.174;20.996;2022-07-29T07:24:06;101094.80;;;22.30
68588;BMP180;55560;52.174;20.996;2022-07-29T07:26:36;101097.80;;;22.30
68588;BMP180;55560;52.174;20.996;2022-07-29T07:29:08;101100.40;;;22.30
68588;BMP180;55560;52.174;20.996;2022-07-29T07:31:36;101102.20;;;22.30
68588;BMP180;55560;52.174;20.996;2022-07-29T07:34:03;101103.60;;;22.30
68588;BMP180;55560;52.174;20.996;2022-07-29T07:36:30;101103.00;;;22.28
68588;BMP180;55560;52.174;20.996;2022-07-29T07:38:57;101096.60;;;22.34
68588;BMP180;55560;52.174;20.996;2022-07-29T07:41:24;101099.80;;;22.40
68588;BMP180;55560;52.174;20.996;2022-07-29T07:43:52;101098.20;;;22.62
68588;BMP180;55560;52.174;20.996;2022-07-29T07:46:19;101104.80;;;23.70
68588;BMP180;55560;52.174;20.996;2022-07-29T07:48:47;101099.80;;;24.36
68588;BMP180;55560;52.174;20.996;2022-07-29T07:51:18;101103.20;;;24.94
68588;BMP180;55560;52.174;20.996;2022-07-29T07:53:46;101111.80;;;25.30
68588;BMP180;55560;52.174;20.996;2022-07-29T07:56:16;101111.00;;;25.20
68588;BMP180;55560;52.174;20.996;2022-07-29T07:58:44;101101.40;;;24.96
68588;BMP180;55560;52.174;20.996;2022-07-29T08:01:13;101109.60;;;24.70
68588;BMP180;55560;52.174;20.996;2022-07-29T08:03:43;101107.00;;;24.50
68588;BMP180;55560;52.174;20.996;2022-07-29T08:06:11;101105.60;;;24.30
68588;BMP180;55560;52.174;20.996;2022-07-29T08:08:37;101108.20;;;24.14
68588;BMP180;55560;52.174;20.996;2022-07-29T08:11:08;101107.80;;;24.00
68588;BMP180;55560;52.174;20.996;2022-07-29T08:13:40;101105.00;;;23.90
68588;BMP180;55560;52.174;20.996;2022-07-29T08:16:09;101102.00;;;23.80
68588;BMP180;55560;52.174;20.996;2022-07-29T08:18:41;101105.00;;;23.80
68588;BMP180;55560;52.174;20.996;2022-07-29T08:21:12;101103.60;;;23.70
68588;BMP180;55560;52.174;20.996;2022-07-29T08:23:44;101097.00;;;23.68
68588;BMP180;55560;52.174;20.996;2022-07-29T08:26:26;101094.60;;;23.50
68588;BMP180;55560;52.174;20.996;2022-07-29T08:28:54;101101.80;;;23.40
68588;BMP180;55560;52.174;20.996;2022-07-29T08:31:21;101102.00;;;23.40
68588;BMP180;55560;52.174;20.996;2022-07-29T08:33:52;101105.40;;;23.30
68588;BMP180;55560;52.174;20.996;2022-07-29T08:36:18;101103.20;;;23.22
68588;BMP180;55560;52.174;20.996;2022-07-29T08:38:53;101105.60;;;23.30
68588;BMP180;55560;52.174;20.996;2022-07-29T08:41:45;101101.00;;;23.30
68588;BMP180;55560;52.174;20.996;2022-07-29T08:44:23;101104.80;;;23.40
68588;BMP180;55560;52.174;20.996;2022-07-29T08:46:57;101105.60;;;23.40
68588;BMP180;55560;52.174;20.996;2022-07-29T08:49:23;101105.40;;;23.40
68588;BMP180;55560;52.174;20.996;2022-07-29T08:51:52;101097.20;;;23.46
68588;BMP180;55560;52.174;20.996;2022-07-29T08:54:22;101102.00;;;23.50
68588;BMP180;55560;52.174;20.996;2022-07-29T08:56:51;101102.00;;;23.50
68588;BMP180;55560;52.174;20.996;2022-07-29T08:59:27;101101.00;;;23.50
68588;BMP180;55560;52.174;20.996;2022-07-29T09:01:58;101095.60;;;23.50
68588;BMP180;55560;52.174;20.996;2022-07-29T09:04:30;101097.80;;;23.50
68588;BMP180;55560;52.174;20.996;2022-07-29T09:07:00;101087.60;;;23.60
68588;BMP180;55560;52.174;20.996;2022-07-29T09:09:30;101084.80;;;23.60
68588;BMP180;55560;52.174;20.996;2022-07-29T09:12:00;101082.60;;;23.70
68588;BMP180;55560;52.174;20.996;2022-07-29T09:14:29;101083.20;;;23.80
68588;BMP180;55560;52.174;20.996;2022-07-29T09:16:56;101080.00;;;23.80
68588;BMP180;55560;52.174;20.996;2022-07-29T09:19:35;101079.40;;;23.90
68588;BMP180;55560;52.174;20.996;2022-07-29T09:22:07;101084.60;;;24.00
68588;BMP180;55560;52.174;20.996;2022-07-29T09:24:44;101088.40;;;24.02
68588;BMP180;55560;52.174;20.996;2022-07-29T09:27:23;101088.20;;;24.10
68588;BMP180;55560;52.174;20.996;2022-07-29T09:30:03;101090.60;;;24.10
68588;BMP180;55560;52.174;20.996;2022-07-29T09:32:32;101081.20;;;24.10
68588;BMP180;55560;52.174;20.996;2022-07-29T09:35:24;101069.80;;;24.20
68588;BMP180;55560;52.174;20.996;2022-07-29T09:37:57;101073.60;;;24.20
68588;BMP180;55560;52.174;20.996;2022-07-29T09:40:28;101070.80;;;24.20
68588;BMP180;55560;52.174;20.996;2022-07-29T09:42:55;101066.20;;;24.20
68588;BMP180;55560;52.174;20.996;2022-07-29T09:45:31;101071.80;;;24.20
68588;BMP180;55560;52.174;20.996;2022-07-29T09:48:13;101068.60;;;24.34
68588;BMP180;55560;52.174;20.996;2022-07-29T09:50:43;101070.80;;;24.50
68588;BMP180;55560;52.174;20.996;2022-07-29T09:53:11;101065.00;;;24.50
68588;BMP180;55560;52.174;20.996;2022-07-29T09:55:50;101071.20;;;24.50
68588;BMP180;55560;52.174;20.996;2022-07-29T09:58:20;101074.20;;;24.50
68588;BMP180;55560;52.174;20.996;2022-07-29T10:00:49;101074.40;;;24.50
68588;BMP180;55560;52.174;20.996;2022-07-29T10:03:19;101069.80;;;24.52
68588;BMP180;55560;52.174;20.996;2022-07-29T10:06:10;101069.40;;;24.60
68588;BMP180;55560;52.174;20.996;2022-07-29T10:08:38;101065.00;;;24.62
68588;BMP180;55560;52.174;20.996;2022-07-29T10:11:18;101058.80;;;24.70
68588;BMP180;55560;52.174;20.996;2022-07-29T10:13:48;101061.40;;;24.70
68588;BMP180;55560;52.174;20.996;2022-07-29T10:16:18;101056.00;;;24.80
68588;BMP180;55560;52.174;20.996;2022-07-29T10:18:46;101051.80;;;24.80
68588;BMP180;55560;52.174;20.996;2022-07-29T10:21:15;101050.80;;;24.80
68588;BMP180;55560;52.174;20.996;2022-07-29T10:24:04;101043.80;;;24.90
68588;BMP180;55560;52.174;20.996;2022-07-29T10:26:42;101043.40;;;24.92
68588;BMP180;55560;52.174;20.996;2022-07-29T10:29:10;101041.00;;;24.92
68588;BMP180;55560;52.174;20.996;2022-07-29T10:31:58;101045.80;;;25.00
68588;BMP180;55560;52.174;20.996;2022-07-29T10:44:35;101041.80;;;25.20
68588;BMP180;55560;52.174;20.996;2022-07-29T10:47:07;101042.60;;;25.20
68588;BMP180;55560;52.174;20.996;2022-07-29T10:49:34;101046.00;;;25.20
68588;BMP180;55560;52.174;20.996;2022-07-29T10:52:19;101041.40;;;25.14
68588;BMP180;55560;52.174;20.996;2022-07-29T10:55:36;101043.80;;;25.00
68588;BMP180;55560;52.174;20.996;2022-07-29T10:58:36;101035.40;;;25.10
68588;BMP180;55560;52.174;20.996;2022-07-29T11:01:29;101035.00;;;25.20
68588;BMP180;55560;52.174;20.996;2022-07-29T11:04:05;101036.80;;;25.12
68588;BMP180;55560;52.174;20.996;2022-07-29T11:07:07;101034.60;;;25.10
68588;BMP180;55560;52.174;20.996;2022-07-29T11:09:38;101030.00;;;25.20
68588;BMP180;55560;52.174;20.996;2022-07-29T11:15:13;101026.80;;;25.50
68588;BMP180;55560;52.174;20.996;2022-07-29T11:20:51;101027.00;;;25.50
68588;BMP180;55560;52.174;20.996;2022-07-29T11:23:31;101022.00;;;25.50
68588;BMP180;55560;52.174;20.996;2022-07-29T11:26:20;101022.80;;;25.50
68588;BMP180;55560;52.174;20.996;2022-07-29T11:29:21;101019.40;;;25.60
68588;BMP180;55560;52.174;20.996;2022-07-29T11:31:52;101019.20;;;25.70
68588;BMP180;55560;52.174;20.996;2022-07-29T11:34:30;101018.40;;;25.70
68588;BMP180;55560;52.174;20.996;2022-07-29T11:45:17;101012.60;;;25.80
68588;BMP180;55560;52.174;20.996;2022-07-29T11:48:05;101006.00;;;25.90
68588;BMP180;55560;52.174;20.996;2022-07-29T11:50:52;101002.20;;;26.00
68588;BMP180;55560;52.174;20.996;2022-07-29T11:53:20;100999.20;;;26.10
68588;BMP180;55560;52.174;20.996;2022-07-29T11:55:54;101002.80;;;26.20
68588;BMP180;55560;52.174;20.996;2022-07-29T11:58:22;101005.40;;;26.30
68588;BMP180;55560;52.174;20.996;2022-07-29T12:00:53;100993.40;;;26.40
68588;BMP180;55560;52.174;20.996;2022-07-29T12:03:27;100994.00;;;26.40
68588;BMP180;55560;52.174;20.996;2022-07-29T12:06:11;101001.20;;;26.40
68588;BMP180;55560;52.174;20.996;2022-07-29T12:08:41;100998.00;;;26.30
68588;BMP180;55560;52.174;20.996;2022-07-29T12:11:17;101001.60;;;26.30
68588;BMP180;55560;52.174;20.996;2022-07-29T12:13:50;100996.60;;;26.40
68588;BMP180;55560;52.174;20.996;2022-07-29T12:16:21;100999.20;;;26.46
68588;BMP180;55560;52.174;20.996;2022-07-29T12:19:00;100995.20;;;26.50
68588;BMP180;55560;52.174;20.996;2022-07-29T12:21:53;100994.40;;;26.60
68588;BMP180;55560;52.174;20.996;2022-07-29T12:24:26;100990.60;;;26.80
68588;BMP180;55560;52.174;20.996;2022-07-29T12:27:11;100990.60;;;26.80
68588;BMP180;55560;52.174;20.996;2022-07-29T12:29:42;101000.60;;;26.80
68588;BMP180;55560;52.174;20.996;2022-07-29T12:32:15;100996.00;;;26.70
68588;BMP180;55560;52.174;20.996;2022-07-29T12:34:47;100993.80;;;26.60
68588;BMP180;55560;52.174;20.996;2022-07-29T12:37:16;100989.20;;;26.50
68588;BMP180;55560;52.174;20.996;2022-07-29T12:39:46;100983.80;;;26.50
68588;BMP180;55560;52.174;20.996;2022-07-29T12:42:15;100980.60;;;26.30
68588;BMP180;55560;52.174;20.996;2022-07-29T12:44:49;100979.80;;;26.20
68588;BMP180;55560;52.174;20.996;2022-07-29T12:47:18;100982.20;;;26.10
68588;BMP180;55560;52.174;20.996;2022-07-29T12:49:50;100981.20;;;26.04
68588;BMP180;55560;52.174;20.996;2022-07-29T12:52:28;100978.60;;;26.10
68588;BMP180;55560;52.174;20.996;2022-07-29T12:54:57;100983.20;;;26.20
68588;BMP180;55560;52.174;20.996;2022-07-29T12:57:27;100986.20;;;26.30
68588;BMP180;55560;52.174;20.996;2022-07-29T13:00:16;100977.40;;;26.40
68588;BMP180;55560;52.174;20.996;2022-07-29T13:02:54;100980.20;;;26.40
68588;BMP180;55560;52.174;20.996;2022-07-29T13:05:22;100979.40;;;26.50
68588;BMP180;55560;52.174;20.996;2022-07-29T13:07:51;100978.60;;;26.52
68588;BMP180;55560;52.174;20.996;2022-07-29T13:10:23;100968.80;;;26.76
68588;BMP180;55560;52.174;20.996;2022-07-29T13:13:15;100968.40;;;27.00
68588;BMP180;55560;52.174;20.996;2022-07-29T13:15:45;100965.20;;;27.30
68588;BMP180;55560;52.174;20.996;2022-07-29T13:18:33;100964.80;;;27.50
68588;BMP180;55560;52.174;20.996;2022-07-29T13:21:12;100962.00;;;27.80
68588;BMP180;55560;52.174;20.996;2022-07-29T13:23:39;100960.80;;;28.10
68588;BMP180;55560;52.174;20.996;2022-07-29T13:26:09;100957.20;;;28.30
68588;BMP180;55560;52.174;20.996;2022-07-29T13:28:38;100960.80;;;28.40
68588;BMP180;55560;52.174;20.996;2022-07-29T13:31:10;100949.60;;;28.50
68588;BMP180;55560;52.174;20.996;2022-07-29T13:33:38;100948.20;;;28.60
68588;BMP180;55560;52.174;20.996;2022-07-29T13:36:06;100962.80;;;28.66
68588;BMP180;55560;52.174;20.996;2022-07-29T13:38:35;100953.00;;;28.98
68588;BMP180;55560;52.174;20.996;2022-07-29T13:41:05;100954.60;;;29.30
68588;BMP180;55560;52.174;20.996;2022-07-29T13:43:35;100956.20;;;29.32
68588;BMP180;55560;52.174;20.996;2022-07-29T13:46:03;100958.60;;;29.34
68588;BMP180;55560;52.174;20.996;2022-07-29T13:48:31;100958.00;;;29.22
68588;BMP180;55560;52.174;20.996;2022-07-29T13:50:58;100952.40;;;29.00
68588;BMP180;55560;52.174;20.996;2022-07-29T13:53:27;100940.40;;;29.10
68588;BMP180;55560;52.174;20.996;2022-07-29T13:56:03;100950.60;;;29.40
68588;BMP180;55560;52.174;20.996;2022-07-29T13:58:34;100951.60;;;29.86
68588;BMP180;55560;52.174;20.996;2022-07-29T14:01:03;100951.40;;;30.92
68588;BMP180;55560;52.174;20.996;2022-07-29T14:03:30;100951.00;;;33.20
68588;BMP180;55560;52.174;20.996;2022-07-29T14:05:57;100949.00;;;34.42
68588;BMP180;55560;52.174;20.996;2022-07-29T14:08:31;100945.00;;;35.62
68588;BMP180;55560;52.174;20.996;2022-07-29T14:10:58;100950.00;;;36.54
68588;BMP180;55560;52.174;20.996;2022-07-29T14:13:25;100948.40;;;37.68
68588;BMP180;55560;52.174;20.996;2022-07-29T14:15:54;100958.00;;;38.98
68588;BMP180;55560;52.174;20.996;2022-07-29T14:18:20;100964.40;;;39.88
68588;BMP180;55560;52.174;20.996;2022-07-29T14:20:47;100958.60;;;40.26
68588;BMP180;55560;52.174;20.996;2022-07-29T14:23:14;100964.20;;;41.40
68588;BMP180;55560;52.174;20.996;2022-07-29T14:25:44;100975.00;;;43.00
68588;BMP180;55560;52.174;20.996;2022-07-29T14:28:15;100964.60;;;43.48
68588;BMP180;55560;52.174;20.996;2022-07-29T14:30:46;100963.00;;;43.86
68588;BMP180;55560;52.174;20.996;2022-07-29T14:33:13;100958.60;;;44.14
68588;BMP180;55560;52.174;20.996;2022-07-29T14:35:40;100964.40;;;43.96
68588;BMP180;55560;52.174;20.996;2022-07-29T14:38:08;100949.00;;;42.70
68588;BMP180;55560;52.174;20.996;2022-07-29T14:40:36;100950.00;;;42.60
68588;BMP180;55560;52.174;20.996;2022-07-29T14:43:05;100945.80;;;42.40
68588;BMP180;55560;52.174;20.996;2022-07-29T14:45:32;100944.00;;;41.60
68588;BMP180;55560;52.174;20.996;2022-07-29T14:48:01;100943.20;;;41.12
68588;BMP180;55560;52.174;20.996;2022-07-29T14:50:28;100937.60;;;40.24